createdAt,value
2023-01-31T00:03:33.202Z,3.30
2023-01-31T00:08:38.503Z,2.92
2023-01-31T00:13:42.768Z,2.58
2023-01-31T00:18:46.593Z,4.05
2023-01-31T00:23:52.383Z,3.10
2023-01-31T00:28:58.728Z,3.33
2023-01-31T00:34:02.747Z,2.58
2023-01-31T00:39:08.765Z,2.47
2023-01-31T00:44:12.166Z,4.28
2023-01-31T00:49:15.545Z,2.97
2023-01-31T00:54:20.943Z,4.03
2023-01-31T00:59:24.294Z,2.33
2023-01-31T01:04:27.676Z,2.60
2023-01-31T01:09:32.678Z,2.17
2023-01-31T01:14:36.755Z,2.30
2023-01-31T01:19:40.195Z,2.97
2023-01-31T01:24:45.876Z,3.03
2023-01-31T01:29:49.251Z,2.15
2023-01-31T01:34:52.623Z,2.00
2023-01-31T01:39:57.515Z,3.92
2023-01-31T01:45:02.616Z,4.10
2023-01-31T01:50:13.292Z,1.90
2023-01-31T01:55:23.494Z,2.10
2023-01-31T02:00:30.276Z,1.90
2023-01-31T02:05:36.547Z,1.42
2023-01-31T02:10:46.738Z,2.20
2023-01-31T02:15:50.315Z,2.00
2023-01-31T02:21:33.845Z,2.35
2023-01-31T02:27:18.401Z,1.65
2023-01-31T02:32:48.829Z,2.22
2023-01-31T02:38:00.025Z,2.08
2023-01-31T02:43:12.151Z,3.70
2023-01-31T02:48:27.012Z,1.95
2023-01-31T02:53:34.359Z,2.58
2023-01-31T02:58:39.644Z,2.20
2023-01-31T03:03:44.600Z,2.13
2023-01-31T03:08:48.089Z,1.90
2023-01-31T03:14:04.808Z,2.75
2023-01-31T03:19:15.119Z,1.70
2023-01-31T03:24:19.604Z,2.50
2023-01-31T03:29:26.327Z,1.95
2023-01-31T03:34:32.220Z,1.70
2023-01-31T03:39:42.325Z,1.55
2023-01-31T03:44:52.057Z,1.88
2023-01-31T03:50:00.035Z,2.08
2023-01-31T03:55:08.946Z,1.50
2023-01-31T04:00:16.506Z,1.58
2023-01-31T04:05:25.072Z,3.72
2023-01-31T04:10:28.665Z,2.58
2023-01-31T04:15:32.763Z,2.83
2023-01-31T04:20:37.464Z,2.40
2023-01-31T04:25:40.858Z,2.63
2023-01-31T04:30:44.304Z,1.67
2023-01-31T04:35:49.375Z,2.22
2023-01-31T04:40:52.854Z,4.18
2023-01-31T04:45:56.265Z,2.20
2023-01-31T04:51:01.331Z,2.67
2023-01-31T04:56:05.838Z,2.17
2023-01-31T05:01:09.576Z,2.00
2023-01-31T05:06:14.340Z,2.47
2023-01-31T05:11:17.722Z,2.00
2023-01-31T05:16:21.583Z,2.88
2023-01-31T05:21:26.319Z,2.42
2023-01-31T05:26:29.745Z,1.77
2023-01-31T05:31:33.274Z,2.72
2023-01-31T05:36:38.009Z,2.08
2023-01-31T05:41:41.453Z,2.30
2023-01-31T05:46:44.864Z,2.13
2023-01-31T05:51:49.509Z,1.98
2023-01-31T05:56:52.991Z,2.20
2023-01-31T06:01:56.645Z,2.35
2023-01-31T06:07:01.539Z,2.17
2023-01-31T06:12:05.430Z,2.03
2023-01-31T06:17:09.989Z,1.80
2023-01-31T06:22:14.734Z,2.22
2023-01-31T06:27:18.110Z,2.47
2023-01-31T06:32:21.507Z,2.28
2023-01-31T06:37:26.455Z,2.03
2023-01-31T06:42:30.585Z,2.85
2023-01-31T06:47:34.323Z,2.97
2023-01-31T06:52:39.330Z,3.30
2023-01-31T06:57:47.761Z,2.55
2023-01-31T07:02:51.185Z,4.45
2023-01-31T07:07:56.227Z,2.25
2023-01-31T07:13:01.499Z,2.80
2023-01-31T07:18:06.253Z,2.95
2023-01-31T07:23:11.277Z,1.95
2023-01-31T07:28:14.682Z,2.28
2023-01-31T07:33:18.087Z,2.47
2023-01-31T07:38:23.064Z,2.60
2023-01-31T07:43:26.554Z,3.72
2023-01-31T07:48:29.900Z,2.50
2023-01-31T07:53:36.646Z,2.88
2023-01-31T07:58:41.456Z,2.60
2023-01-31T08:03:44.827Z,2.30
2023-01-31T08:08:49.905Z,2.42
2023-01-31T08:13:53.307Z,3.30
2023-01-31T08:18:57.288Z,2.33
2023-01-31T08:24:02.021Z,2.90
2023-01-31T08:29:05.520Z,3.45
2023-01-31T08:34:09.216Z,2.70
2023-01-31T08:39:14.061Z,2.45
2023-01-31T08:44:17.580Z,2.30
2023-01-31T08:49:20.960Z,1.95
2023-01-31T08:54:25.698Z,2.45
2023-01-31T08:59:29.421Z,2.42
2023-01-31T09:04:33.552Z,2.33
2023-01-31T09:09:38.533Z,2.03
2023-01-31T09:14:42.161Z,2.30
2023-01-31T09:19:45.939Z,2.35
2023-01-31T09:24:50.676Z,3.03
2023-01-31T09:29:54.358Z,4.20
2023-01-31T09:34:57.766Z,2.33
2023-01-31T09:40:02.486Z,2.25
2023-01-31T09:45:10.820Z,2.20
2023-01-31T09:50:21.808Z,2.45
2023-01-31T09:55:37.272Z,2.05
2023-01-31T10:00:48.772Z,2.33
2023-01-31T10:05:56.674Z,2.50
2023-01-31T10:11:04.823Z,2.45
2023-01-31T10:16:18.762Z,2.30
2023-01-31T10:21:27.281Z,2.63
2023-01-31T10:26:35.310Z,2.72
2023-01-31T10:31:45.598Z,2.58
2023-01-31T10:36:54.048Z,3.10
2023-01-31T10:42:09.975Z,3.10
2023-01-31T10:47:15.022Z,2.80
2023-01-31T10:52:33.221Z,2.97
2023-01-31T10:57:38.767Z,2.85
2023-01-31T11:02:42.439Z,2.42
2023-01-31T11:07:45.874Z,2.45
2023-01-31T11:12:56.388Z,2.40
2023-01-31T11:18:01.997Z,2.60
2023-01-31T11:23:08.256Z,2.90
2023-01-31T11:28:22.637Z,2.20
2023-01-31T11:33:39.759Z,2.58
2023-01-31T11:38:43.964Z,2.38
2023-01-31T11:43:48.723Z,2.35
2023-01-31T11:48:52.328Z,2.03
2023-01-31T11:53:56.642Z,2.05
2023-01-31T11:59:07.592Z,1.80
2023-01-31T12:04:18.479Z,1.63
2023-01-31T12:09:23.711Z,3.53
2023-01-31T12:14:39.590Z,2.13
2023-01-31T12:19:53.970Z,1.58
2023-01-31T12:25:05.536Z,2.30
2023-01-31T12:30:35.655Z,2.13
2023-01-31T12:35:51.488Z,2.92
2023-01-31T12:41:04.498Z,3.03
2023-01-31T12:46:18.704Z,2.63
2023-01-31T12:51:40.041Z,2.65
2023-01-31T12:57:02.838Z,2.80
2023-01-31T13:02:23.577Z,2.40
2023-01-31T13:07:35.448Z,3.08
2023-01-31T13:12:40.241Z,2.90
2023-01-31T13:17:46.433Z,3.30
2023-01-31T13:22:56.396Z,3.30
2023-01-31T13:28:03.739Z,3.25
2023-01-31T13:33:19.163Z,2.97
2023-01-31T13:38:24.700Z,3.85
2023-01-31T13:43:28.433Z,2.85
2023-01-31T13:48:38.903Z,2.35
2023-01-31T13:53:48.792Z,2.40
2023-01-31T13:58:53.188Z,2.90
2023-01-31T14:04:36.678Z,2.63
2023-01-31T14:09:45.886Z,2.55
2023-01-31T14:14:51.395Z,3.80
2023-01-31T14:20:08.139Z,3.53
2023-01-31T14:25:15.419Z,3.53
2023-01-31T14:30:38.820Z,3.20
2023-01-31T14:35:59.268Z,3.55
2023-01-31T14:41:11.044Z,2.72
2023-01-31T14:46:37.246Z,4.93
2023-01-31T14:52:08.784Z,3.53
2023-01-31T14:57:16.509Z,3.17
2023-01-31T15:02:39.814Z,3.95
2023-01-31T15:08:06.105Z,4.20
2023-01-31T15:13:35.633Z,3.70
2023-01-31T15:18:39.500Z,3.47
2023-01-31T15:23:44.856Z,3.53
2023-01-31T15:28:50.112Z,3.70
2023-01-31T15:33:59.055Z,5.07
2023-01-31T15:39:17.379Z,3.75
2023-01-31T15:44:22.376Z,3.70
2023-01-31T15:49:38.924Z,3.92
2023-01-31T15:54:57.924Z,4.10
2023-01-31T16:00:01.447Z,3.30
2023-01-31T16:05:07.219Z,3.83
2023-01-31T16:10:15.723Z,3.53
2023-01-31T16:15:23.235Z,3.30
2023-01-31T16:20:42.280Z,3.40
2023-01-31T16:25:53.976Z,4.22
2023-01-31T16:31:05.969Z,3.20
2023-01-31T16:36:15.747Z,4.20
2023-01-31T16:41:39.209Z,3.90
2023-01-31T16:46:46.073Z,7.05
2023-01-31T16:51:50.832Z,5.88
2023-01-31T16:57:09.181Z,5.63
2023-01-31T17:02:23.501Z,5.45
2023-01-31T17:07:30.921Z,5.13
2023-01-31T17:12:40.328Z,5.82
2023-01-31T17:17:43.959Z,6.78
2023-01-31T17:22:56.824Z,5.65
2023-01-31T17:28:07.008Z,6.70
2023-01-31T17:33:13.359Z,5.43
2023-01-31T17:38:17.359Z,5.30
2023-01-31T17:43:25.170Z,4.88
2023-01-31T17:48:28.591Z,5.50
2023-01-31T17:53:37.336Z,5.25
2023-01-31T17:58:46.479Z,6.63
2023-01-31T18:03:50.587Z,6.00
2023-01-31T18:08:54.017Z,5.50
2023-01-31T18:14:00.073Z,7.07
2023-01-31T18:19:03.770Z,4.72
2023-01-31T18:24:09.145Z,4.88
2023-01-31T18:29:19.514Z,3.70
2023-01-31T18:34:22.956Z,2.67
2023-01-31T18:39:26.483Z,2.40
2023-01-31T18:44:31.368Z,2.00
2023-01-31T18:49:34.767Z,2.58
2023-01-31T18:54:38.286Z,2.33
2023-01-31T18:59:43.108Z,2.83
2023-01-31T19:04:46.522Z,2.67
2023-01-31T19:09:50.152Z,2.53
2023-01-31T19:14:56.495Z,2.35
2023-01-31T19:19:59.962Z,2.22
2023-01-31T19:25:09.108Z,2.60
2023-01-31T19:30:15.581Z,3.05
2023-01-31T19:35:18.971Z,3.80
2023-01-31T19:40:22.807Z,3.33
2023-01-31T19:45:27.744Z,3.67
2023-01-31T19:50:31.112Z,2.83
2023-01-31T19:55:34.560Z,3.38
2023-01-31T20:00:39.375Z,3.30
2023-01-31T20:05:42.773Z,4.07
2023-01-31T20:10:46.196Z,3.08
2023-01-31T20:15:57.958Z,3.78
2023-01-31T20:21:01.791Z,3.30
2023-01-31T20:26:05.188Z,2.90
2023-01-31T20:31:12.228Z,2.92
2023-01-31T20:36:15.713Z,3.15
2023-01-31T20:41:19.732Z,2.67
2023-01-31T20:46:24.640Z,3.22
2023-01-31T20:51:28.431Z,3.13
2023-01-31T20:56:31.913Z,2.70
2023-01-31T21:01:36.830Z,2.95
2023-01-31T21:06:40.320Z,2.70
2023-01-31T21:11:43.738Z,2.47
2023-01-31T21:16:49.008Z,2.45
2023-01-31T21:21:52.392Z,3.67
2023-01-31T21:26:55.999Z,3.58
2023-01-31T21:32:01.200Z,3.03
2023-01-31T21:37:04.884Z,2.92
2023-01-31T21:42:18.106Z,2.42
2023-01-31T21:52:26.527Z,2.78
2023-01-31T21:57:30.469Z,2.92
2023-01-31T22:02:35.654Z,2.58
2023-01-31T22:07:40.493Z,2.60
2023-01-31T22:12:44.155Z,2.90
2023-01-31T22:17:48.883Z,3.17
2023-01-31T22:22:52.243Z,3.13
2023-01-31T22:27:57.532Z,2.85
2023-01-31T22:33:02.302Z,3.22
2023-01-31T22:38:05.978Z,2.22
2023-01-31T22:43:11.667Z,2.50
2023-01-31T22:48:18.677Z,3.10
2023-01-31T22:53:22.164Z,2.25
2023-01-31T22:58:25.924Z,2.72
2023-01-31T23:03:30.720Z,2.20
2023-01-31T23:08:34.194Z,0.70
2023-01-31T23:13:38.182Z,0.50
2023-01-31T23:18:43.114Z,0.70
2023-01-31T23:23:47.375Z,0.70
2023-01-31T23:28:50.776Z,0.80
2023-01-31T23:33:55.479Z,0.40
2023-01-31T23:38:58.869Z,0.60
2023-01-31T23:44:02.674Z,0.52
2023-01-31T23:49:07.627Z,0.73
2023-01-31T23:54:11.562Z,0.98
2023-01-31T23:59:14.976Z,0.88
